Time;durP1;ratioP1;P1;durP2;ratioP2;P2;SDS_P1;SDS_P2;PMS_P1;PMS_P2;Temp;Humidity;BMP_temperature;BMP_pressure;BME280_temperature;BME280_humidity;BME280_pressure;Samples;Min_cycle;Max_cycle;Signal;HPM_P1;HPM_P2
2022/05/08 00:00:49;;;;;;;21.37;19.17;;;;;;;;;;6209240;23;20393;-94
2022/05/08 00:03:16;;;;;;;18.80;17.07;;;;;;;;;;6238358;23;20470;-92
2022/05/08 01:06:31;;;;;;;6.90;6.40;;;;;;;;;;6219207;22;20476;-93
2022/05/08 01:09:08;;;;;;;8.70;6.60;;;;;;;;;;6236909;23;20429;-92
2022/05/08 02:22:21;;;;;;;10.40;8.90;;;;;;;;;;6181899;23;20438;-93
2022/05/08 02:25:16;;;;;;;12.07;8.57;;;;;;;;;;6196999;23;20957;-95
2022/05/08 02:27:51;;;;;;;11.10;8.70;;;;;;;;;;6175369;23;20394;-94
2022/05/08 02:30:21;;;;;;;9.80;8.77;;;;;;;;;;6174579;23;20438;-93
2022/05/08 02:32:53;;;;;;;10.70;8.80;;;;;;;;;;6173888;23;20383;-93
2022/05/08 02:35:23;;;;;;;14.70;10.23;;;;;;;;;;6177196;23;20387;-93
2022/05/08 02:38:06;;;;;;;13.40;9.17;;;;;;;;;;6177983;23;20388;-93
2022/05/08 02:40:44;;;;;;;11.73;9.50;;;;;;;;;;6174106;23;20951;-94
2022/05/08 02:43:10;;;;;;;10.77;9.70;;;;;;;;;;6177104;23;20481;-94
2022/05/08 02:45:45;;;;;;;13.60;9.83;;;;;;;;;;6176370;23;20383;-94
2022/05/08 02:48:23;;;;;;;13.60;11.40;;;;;;;;;;6179108;23;20391;-95
2022/05/08 02:51:04;;;;;;;12.50;10.70;;;;;;;;;;6180410;23;20391;-94
2022/05/08 02:53:33;;;;;;;14.10;10.87;;;;;;;;;;6182817;23;20407;-95
2022/05/08 02:58:59;;;;;;;12.90;11.70;;;;;;;;;;6173702;23;20411;-93
2022/05/08 03:01:49;;;;;;;15.10;11.40;;;;;;;;;;6173903;23;20387;-94
2022/05/08 03:04:20;;;;;;;15.57;12.57;;;;;;;;;;6172304;23;20439;-94
2022/05/08 03:07:02;;;;;;;14.77;13.10;;;;;;;;;;6172623;23;20415;-93
2022/05/08 03:09:37;;;;;;;15.87;12.97;;;;;;;;;;6200748;23;20446;-94
2022/05/08 03:12:06;;;;;;;16.57;12.90;;;;;;;;;;6199501;23;20399;-93
2022/05/08 03:14:51;;;;;;;15.23;13.13;;;;;;;;;;6177750;23;20402;-94
2022/05/08 03:17:53;;;;;;;14.57;12.80;;;;;;;;;;6176973;23;20391;-93
2022/05/08 03:20:19;;;;;;;19.93;14.40;;;;;;;;;;6161156;23;20759;-94
2022/05/08 03:26:42;;;;;;;17.47;15.10;;;;;;;;;;6109382;23;20454;-96
2022/05/08 03:29:28;;;;;;;20.73;16.03;;;;;;;;;;6028002;23;20393;-93
2022/05/08 03:38:43;;;;;;;21.23;15.93;;;;;;;;;;6265668;23;20396;-94
2022/05/08 03:42:00;;;;;;;22.67;18.70;;;;;;;;;;6260026;23;20400;-93
2022/05/08 04:14:16;;;;;;;24.50;16.83;;;;;;;;;;6242227;22;20428;-93
2022/05/08 04:41:43;;;;;;;17.70;12.63;;;;;;;;;;6275897;22;20556;-94
2022/05/08 05:30:22;;;;;;;19.73;6.60;;;;;;;;;;6263232;23;20404;-94
2022/05/08 07:29:43;;;;;;;8.37;5.80;;;;;;;;;;6221732;22;20808;-91
2022/05/08 07:33:19;;;;;;;;;;;;;;;;;;;;;
2022/05/08 07:39:07;;;;;;;10.50;4.93;;;;;;;;;;6245446;22;20484;-92
2022/05/08 07:42:10;;;;;;;10.57;5.20;;;;;;;;;;6243039;23;20386;-93
2022/05/08 07:45:17;;;;;;;11.50;5.93;;;;;;;;;;6249571;23;20392;-93
2022/05/08 07:48:26;;;;;;;10.80;4.67;;;;;;;;;;6094863;23;20445;-92
2022/05/08 07:51:37;;;;;;;11.03;5.20;;;;;;;;;;6247753;23;20393;-91
2022/05/08 07:54:47;;;;;;;10.30;5.03;;;;;;;;;;6269140;22;20425;-93
2022/05/08 07:57:43;;;;;;;10.07;5.00;;;;;;;;;;6254605;22;20579;-91
2022/05/08 08:00:14;;;;;;;10.00;5.67;;;;;;;;;;6247741;23;20433;-93
2022/05/08 08:03:01;;;;;;;7.37;4.47;;;;;;;;;;6218812;23;20452;-93
2022/05/08 08:06:12;;;;;;;10.70;5.80;;;;;;;;;;6243893;23;20378;-93
2022/05/08 08:12:24;;;;;;;7.07;5.03;;;;;;;;;;6246262;23;20434;-93
2022/05/08 08:15:37;;;;;;;7.17;5.20;;;;;;;;;;6251243;23;20684;-93
2022/05/08 08:18:45;;;;;;;9.10;5.13;;;;;;;;;;6251414;23;20386;-92
2022/05/08 08:21:48;;;;;;;7.83;5.20;;;;;;;;;;6251804;23;20900;-92
2022/05/08 08:24:54;;;;;;;7.27;4.93;;;;;;;;;;6257618;23;20396;-94
2022/05/08 08:28:01;;;;;;;6.83;5.77;;;;;;;;;;6261608;23;20370;-94
2022/05/08 08:31:06;;;;;;;11.40;5.20;;;;;;;;;;6263093;23;20361;-93
2022/05/08 08:34:12;;;;;;;10.50;4.73;;;;;;;;;;6249273;23;20706;-92
2022/05/08 08:37:21;;;;;;;5.73;4.70;;;;;;;;;;6248587;22;20897;-93
2022/05/08 08:40:27;;;;;;;8.00;4.67;;;;;;;;;;6250171;23;20626;-91
2022/05/08 08:47:42;;;;;;;11.50;5.03;;;;;;;;;;6249856;23;20509;-92
2022/05/08 08:49:45;;;;;;;9.20;6.03;;;;;;;;;;6251664;23;20442;-92
2022/05/08 08:52:53;;;;;;;9.67;5.03;;;;;;;;;;6248467;23;20393;-87
2022/05/08 08:55:59;;;;;;;5.70;5.07;;;;;;;;;;6251555;23;20377;-91
2022/05/08 08:59:03;;;;;;;10.13;4.50;;;;;;;;;;6245331;23;20385;-94
2022/05/08 09:02:09;;;;;;;10.33;5.23;;;;;;;;;;6254057;23;20385;-92
2022/05/08 09:05:14;;;;;;;4.57;4.13;;;;;;;;;;6249732;23;20393;-92
2022/05/08 09:08:23;;;;;;;7.60;4.10;;;;;;;;;;6256254;22;20389;-91
2022/05/08 09:11:35;;;;;;;10.80;5.00;;;;;;;;;;6261823;23;20388;-90
2022/05/08 09:14:54;;;;;;;9.57;4.67;;;;;;;;;;6249869;23;20413;-90
2022/05/08 09:17:57;;;;;;;11.63;4.60;;;;;;;;;;6251395;23;20747;-92
2022/05/08 09:24:43;;;;;;;5.00;4.60;;;;;;;;;;6118190;23;20459;-92
2022/05/08 09:33:26;;;;;;;6.87;4.47;;;;;;;;;;6252128;22;20563;-91
2022/05/08 09:36:23;;;;;;;6.80;5.37;;;;;;;;;;6247250;23;20967;-93
2022/05/08 09:39:28;;;;;;;8.00;3.80;;;;;;;;;;6250885;23;20424;-92
2022/05/08 09:42:47;;;;;;;;;;;;;;;;;;;;;
2022/05/08 11:18:44;;;;;;;4.17;2.70;;;;;;;;;;6236598;22;20459;-91
2022/05/08 11:38:34;;;;;;;5.67;3.40;;;;;;;;;;6280846;22;20423;-89
2022/05/08 11:41:41;;;;;;;2.90;2.53;;;;;;;;;;6283397;22;20392;-89
2022/05/08 11:44:46;;;;;;;3.10;2.53;;;;;;;;;;6283289;22;20392;-92
2022/05/08 11:47:55;;;;;;;2.87;2.50;;;;;;;;;;6287065;22;20480;-92
2022/05/08 11:51:00;;;;;;;2.43;2.33;;;;;;;;;;6282865;22;20395;-90
2022/05/08 11:54:13;;;;;;;4.10;3.70;;;;;;;;;;6275798;22;20503;-92
2022/05/08 11:57:38;;;;;;;3.17;3.07;;;;;;;;;;6281606;22;20395;-92
2022/05/08 12:00:47;;;;;;;3.27;2.77;;;;;;;;;;6283840;22;20393;-90
2022/05/08 12:03:52;;;;;;;3.63;2.73;;;;;;;;;;6288123;22;20388;-91
2022/05/08 12:07:02;;;;;;;4.47;3.07;;;;;;;;;;6300184;22;20415;-92
2022/05/08 12:09:56;;;;;;;2.87;2.43;;;;;;;;;;6282626;22;20434;-90
2022/05/08 12:13:11;;;;;;;4.70;2.60;;;;;;;;;;6293693;22;20450;-94
2022/05/08 12:18:59;;;;;;;4.40;2.60;;;;;;;;;;6254735;22;20460;-93
2022/05/08 12:24:48;;;;;;;2.67;2.37;;;;;;;;;;6272765;22;20491;-94
2022/05/08 12:30:38;;;;;;;2.50;2.40;;;;;;;;;;6288062;22;20518;-93
2022/05/08 12:48:11;;;;;;;3.37;3.27;;;;;;;;;;6300755;22;20375;-95
2022/05/08 12:51:18;;;;;;;2.30;2.20;;;;;;;;;;6234734;23;20386;-91
2022/05/08 12:54:38;;;;;;;3.70;3.10;;;;;;;;;;6286371;22;20444;-90
2022/05/08 13:00:41;;;;;;;4.30;2.37;;;;;;;;;;6247675;22;20415;-92
2022/05/08 13:03:55;;;;;;;3.17;2.93;;;;;;;;;;6285133;22;20387;-91
2022/05/08 13:07:39;;;;;;;;;;;;;;;;;;;;;
2022/05/08 13:10:40;;;;;;;7.13;3.60;;;;;;;;;;6242801;23;20385;-90
2022/05/08 13:13:50;;;;;;;4.30;3.13;;;;;;;;;;6207673;23;20479;-92
2022/05/08 13:16:50;;;;;;;3.17;2.87;;;;;;;;;;6250602;23;20385;-91
2022/05/08 13:20:02;;;;;;;4.50;3.03;;;;;;;;;;6258824;23;20385;-93
2022/05/08 13:23:04;;;;;;;3.10;2.80;;;;;;;;;;6261756;23;20403;-89
2022/05/08 13:26:15;;;;;;;2.57;2.37;;;;;;;;;;6259962;23;20393;-90
2022/05/08 13:29:19;;;;;;;4.00;3.60;;;;;;;;;;6266579;23;20389;-91
2022/05/08 13:32:28;;;;;;;3.40;3.20;;;;;;;;;;6263179;23;20437;-90
2022/05/08 13:35:30;;;;;;;3.30;3.10;;;;;;;;;;6257074;23;20397;-89
2022/05/08 13:38:39;;;;;;;4.67;4.30;;;;;;;;;;6254426;23;20386;-92
2022/05/08 13:41:58;;;;;;;2.67;2.60;;;;;;;;;;6250759;23;20417;-92
2022/05/08 13:44:46;;;;;;;4.33;2.87;;;;;;;;;;6230039;23;20444;-91
2022/05/08 13:47:16;;;;;;;4.17;3.87;;;;;;;;;;6227280;23;20437;-91
2022/05/08 13:49:52;;;;;;;3.17;2.77;;;;;;;;;;6231280;23;20359;-92
2022/05/08 13:52:18;;;;;;;4.03;3.50;;;;;;;;;;6225998;23;20390;-91
2022/05/08 13:54:44;;;;;;;6.83;4.33;;;;;;;;;;6229335;23;20398;-91
2022/05/08 13:57:32;;;;;;;4.07;3.77;;;;;;;;;;6200853;23;20394;-91
2022/05/08 14:00:37;;;;;;;2.80;2.60;;;;;;;;;;6223964;23;20390;-90
2022/05/08 14:03:50;;;;;;;2.90;2.70;;;;;;;;;;6219201;23;20390;-92
2022/05/08 14:07:08;;;;;;;2.83;2.80;;;;;;;;;;6219674;23;20389;-90
2022/05/08 14:10:10;;;;;;;3.93;3.40;;;;;;;;;;6221067;23;20493;-94
2022/05/08 14:13:11;;;;;;;3.50;3.27;;;;;;;;;;6219701;23;20434;-90
2022/05/08 14:16:11;;;;;;;4.63;2.40;;;;;;;;;;6216777;23;20390;-92
2022/05/08 14:18:57;;;;;;;2.77;2.57;;;;;;;;;;6220165;23;20386;-92
2022/05/08 14:22:03;;;;;;;4.67;2.60;;;;;;;;;;6215589;23;20465;-90
2022/05/08 14:25:15;;;;;;;3.33;3.07;;;;;;;;;;6211370;23;20394;-92
2022/05/08 14:28:23;;;;;;;4.37;3.00;;;;;;;;;;6220378;23;20505;-90
2022/05/08 14:40:07;;;;;;;2.13;1.93;;;;;;;;;;6221964;23;20517;-94
2022/05/08 14:42:48;;;;;;;2.20;2.10;;;;;;;;;;6223134;23;20473;-94
2022/05/08 14:45:47;;;;;;;2.03;1.93;;;;;;;;;;6228075;23;20394;-94
2022/05/08 14:51:31;;;;;;;3.43;2.23;;;;;;;;;;6227865;23;20374;-96
2022/05/08 14:54:29;;;;;;;2.53;2.33;;;;;;;;;;6226647;23;20433;-94
2022/05/08 14:57:35;;;;;;;3.93;2.60;;;;;;;;;;6228247;23;20388;-95
2022/05/08 15:21:24;;;;;;;3.57;2.57;;;;;;;;;;6259192;22;20388;-93
2022/05/08 15:24:51;;;;;;;4.10;3.70;;;;;;;;;;6257548;22;20579;-95
2022/05/08 15:28:03;;;;;;;2.73;2.50;;;;;;;;;;6250279;22;20431;-94
2022/05/08 15:33:25;;;;;;;3.30;3.10;;;;;;;;;;6246605;22;20525;-92
2022/05/08 16:24:34;;;;;;;2.87;2.67;;;;;;;;;;6195546;23;20482;-95
2022/05/08 16:27:41;;;;;;;3.80;3.00;;;;;;;;;;6286257;22;20388;-96
2022/05/08 16:30:51;;;;;;;4.20;3.07;;;;;;;;;;6287292;22;20472;-92
2022/05/08 16:33:54;;;;;;;2.97;2.73;;;;;;;;;;6289898;22;20447;-96
2022/05/08 16:37:07;;;;;;;3.33;3.23;;;;;;;;;;6284769;22;20467;-91
2022/05/08 16:40:05;;;;;;;2.20;2.10;;;;;;;;;;6276040;22;20483;-91
2022/05/08 16:43:11;;;;;;;3.53;2.90;;;;;;;;;;6286154;22;20375;-92
2022/05/08 16:46:17;;;;;;;4.50;3.50;;;;;;;;;;6277490;22;20396;-91
2022/05/08 16:49:29;;;;;;;2.70;2.60;;;;;;;;;;6281062;22;20385;-92
2022/05/08 17:03:30;;;;;;;3.50;3.20;;;;;;;;;;5498373;22;15082200;-92
2022/05/08 17:06:37;;;;;;;3.80;3.60;;;;;;;;;;6172149;23;20442;-89
2022/05/08 17:09:42;;;;;;;3.80;3.40;;;;;;;;;;6137677;23;20381;-90
2022/05/08 17:12:48;;;;;;;2.83;2.73;;;;;;;;;;6134741;23;20439;-90
2022/05/08 17:15:54;;;;;;;5.97;2.70;;;;;;;;;;6134430;23;20425;-89
2022/05/08 17:19:00;;;;;;;2.27;2.17;;;;;;;;;;6134188;23;20415;-90
2022/05/08 17:22:06;;;;;;;2.40;2.30;;;;;;;;;;6131177;23;21013;-87
2022/05/08 17:25:12;;;;;;;2.83;2.37;;;;;;;;;;6124418;23;21129;-88
2022/05/08 17:31:26;;;;;;;3.33;3.30;;;;;;;;;;6135514;23;20435;-91
2022/05/08 17:34:31;;;;;;;6.50;2.63;;;;;;;;;;6135446;23;20495;-90
2022/05/08 17:37:40;;;;;;;6.40;2.67;;;;;;;;;;6124484;23;20714;-90
2022/05/08 17:40:55;;;;;;;1.93;1.83;;;;;;;;;;6129301;23;20517;-89
2022/05/08 17:44:15;;;;;;;3.00;2.80;;;;;;;;;;6137023;23;20380;-90
2022/05/08 17:47:14;;;;;;;3.20;3.00;;;;;;;;;;6139192;23;20436;-90
2022/05/08 17:50:00;;;;;;;3.07;2.87;;;;;;;;;;6139633;23;20365;-86
2022/05/08 17:52:48;;;;;;;4.80;2.77;;;;;;;;;;6140813;23;20454;-91
2022/05/08 17:55:55;;;;;;;5.00;2.27;;;;;;;;;;6142082;23;20392;-91
2022/05/08 17:59:03;;;;;;;2.60;2.40;;;;;;;;;;6132840;23;20376;-91
2022/05/08 18:08:21;;;;;;;2.80;2.70;;;;;;;;;;6152306;23;20422;-89
2022/05/08 18:11:27;;;;;;;3.53;2.40;;;;;;;;;;6150742;23;20488;-87
2022/05/08 18:14:32;;;;;;;2.80;2.60;;;;;;;;;;6147933;23;20380;-90
2022/05/08 18:17:51;;;;;;;5.67;3.10;;;;;;;;;;6152701;23;20384;-91
2022/05/08 18:21:02;;;;;;;3.83;3.50;;;;;;;;;;6148156;23;21036;-93
2022/05/08 18:34:16;;;;;;;3.60;2.97;;;;;;;;;;6137216;22;20465;-95
2022/05/08 18:36:45;;;;;;;2.40;2.20;;;;;;;;;;6130642;23;20405;-94
2022/05/08 18:39:32;;;;;;;5.70;4.00;;;;;;;;;;6139917;23;20448;-95
2022/05/08 18:42:40;;;;;;;10.13;3.37;;;;;;;;;;6268075;22;20421;-94
2022/05/08 18:45:49;;;;;;;3.30;3.10;;;;;;;;;;6267747;23;20417;-94
2022/05/08 19:07:43;;;;;;;11.83;3.40;;;;;;;;;;6281783;22;21007;-92
2022/05/08 19:10:46;;;;;;;3.17;3.10;;;;;;;;;;6319643;22;20392;-96
2022/05/08 19:19:06;;;;;;;6.33;3.03;;;;;;;;;;6161300;22;20477;-94
2022/05/08 19:22:34;;;;;;;3.27;2.70;;;;;;;;;;6167229;23;20390;-92
2022/05/08 19:27:58;;;;;;;7.53;2.77;;;;;;;;;;6165515;22;20522;-92
2022/05/08 19:40:24;;;;;;;3.60;3.27;;;;;;;;;;6174946;22;20391;-93
